createdAt,value
2023-04-28T00:05:46.893Z,5.05
2023-04-28T00:10:57.709Z,5.10
2023-04-28T00:13:24.544Z,4.97
2023-04-28T00:15:53.023Z,5.07
2023-04-28T00:18:20.581Z,5.18
2023-04-28T00:20:47.209Z,5.10
2023-04-28T00:23:13.685Z,4.80
2023-04-28T00:25:40.773Z,5.50
2023-04-28T00:28:07.267Z,5.15
2023-04-28T00:30:33.801Z,4.78
2023-04-28T00:35:44.256Z,5.40
2023-04-28T00:38:10.720Z,5.30
2023-04-28T00:40:38.272Z,5.50
2023-04-28T00:43:05.142Z,5.80
2023-04-28T00:48:16.421Z,5.70
2023-04-28T00:50:44.183Z,5.75
2023-04-28T00:53:13.615Z,5.47
2023-04-28T00:58:24.745Z,5.93
2023-04-28T01:00:51.688Z,5.82
2023-04-28T01:06:02.817Z,5.45
2023-04-28T01:08:33.659Z,5.95
2023-04-28T01:11:02.105Z,5.90
2023-04-28T01:13:59.382Z,6.05
2023-04-28T01:19:36.048Z,5.68
2023-04-28T01:22:02.607Z,5.80
2023-04-28T01:24:29.193Z,5.80
2023-04-28T01:29:42.565Z,5.68
2023-04-28T01:32:09.089Z,5.68
2023-04-28T01:34:35.977Z,5.88
2023-04-28T01:37:05.564Z,5.72
2023-04-28T01:39:32.128Z,5.70
2023-04-28T01:41:58.644Z,5.88
2023-04-28T01:44:25.261Z,5.80
2023-04-28T01:46:51.734Z,5.97
2023-04-28T01:49:21.575Z,6.35
2023-04-28T01:51:57.049Z,5.88
2023-04-28T01:54:42.309Z,5.80
2023-04-28T01:57:09.570Z,5.82
2023-04-28T01:59:36.504Z,5.97
2023-04-28T02:02:05.531Z,5.57
2023-04-28T02:04:32.890Z,6.15
2023-04-28T02:06:59.707Z,6.00
2023-04-28T02:09:26.585Z,6.00
2023-04-28T02:11:53.097Z,5.97
2023-04-28T02:14:20.934Z,6.00
2023-04-28T02:16:47.478Z,5.90
2023-04-28T02:19:15.495Z,6.00
2023-04-28T02:21:43.021Z,6.20
2023-04-28T02:24:09.674Z,5.75
2023-04-28T02:26:36.182Z,6.10
2023-04-28T02:29:04.342Z,5.38
2023-04-28T02:31:32.338Z,5.90
2023-04-28T02:33:58.886Z,6.50
2023-04-28T02:36:25.644Z,6.18
2023-04-28T02:38:52.113Z,6.38
2023-04-28T02:41:18.683Z,6.25
2023-04-28T02:43:45.210Z,5.90
2023-04-28T02:46:11.814Z,6.50
2023-04-28T02:48:38.373Z,6.38
2023-04-28T02:51:05.073Z,6.07
2023-04-28T02:53:32.670Z,5.93
2023-04-28T02:55:59.532Z,6.05
2023-04-28T02:58:26.710Z,6.20
2023-04-28T03:00:53.266Z,6.88
2023-04-28T03:03:19.859Z,6.53
2023-04-28T03:05:46.756Z,6.43
2023-04-28T03:08:13.190Z,7.00
2023-04-28T03:10:39.709Z,6.50
2023-04-28T03:13:06.233Z,7.13
2023-04-28T03:15:32.951Z,7.00
2023-04-28T03:17:59.582Z,6.68
2023-04-28T03:20:26.143Z,6.93
2023-04-28T03:22:52.741Z,8.45
2023-04-28T03:25:19.543Z,9.30
2023-04-28T03:27:50.910Z,7.50
2023-04-28T03:30:17.460Z,6.80
2023-04-28T03:32:44.043Z,7.95
2023-04-28T03:35:10.771Z,7.47
2023-04-28T03:37:38.960Z,7.18
2023-04-28T03:40:06.500Z,7.25
2023-04-28T03:42:49.047Z,7.30
2023-04-28T03:45:23.185Z,7.35
2023-04-28T03:47:49.787Z,8.02
2023-04-28T03:50:16.280Z,7.22
2023-04-28T03:52:42.763Z,8.02
2023-04-28T03:55:09.884Z,8.18
2023-04-28T03:57:36.606Z,7.82
2023-04-28T04:00:03.281Z,7.25
2023-04-28T04:02:51.645Z,7.68
2023-04-28T04:05:18.559Z,7.63
2023-04-28T04:07:45.242Z,8.05
2023-04-28T04:10:12.706Z,7.45
2023-04-28T04:12:43.372Z,7.40
2023-04-28T04:15:10.285Z,8.15
2023-04-28T04:17:38.541Z,8.20
2023-04-28T04:20:06.228Z,9.00
2023-04-28T04:22:32.712Z,9.00
2023-04-28T04:24:59.278Z,8.18
2023-04-28T04:27:26.312Z,8.80
2023-04-28T04:29:53.779Z,10.10
2023-04-28T04:32:20.274Z,8.88
2023-04-28T04:34:47.358Z,8.10
2023-04-28T04:37:14.415Z,7.68
2023-04-28T04:39:47.344Z,7.80
2023-04-28T04:42:24.880Z,7.85
2023-04-28T04:45:03.127Z,8.25
2023-04-28T04:47:30.668Z,8.30
2023-04-28T04:49:57.863Z,7.97
2023-04-28T04:52:24.965Z,8.93
2023-04-28T04:54:51.674Z,8.65
2023-04-28T04:57:18.328Z,8.63
2023-04-28T05:00:04.635Z,10.20
2023-04-28T05:02:31.613Z,8.57
2023-04-28T05:05:07.987Z,8.20
2023-04-28T05:07:39.911Z,14.75
2023-04-28T05:10:07.388Z,19.15
2023-04-28T05:12:33.961Z,26.20
2023-04-28T05:15:00.444Z,14.38
2023-04-28T05:17:27.051Z,14.88
2023-04-28T05:19:53.603Z,14.73
2023-04-28T05:22:20.138Z,8.35
2023-04-28T05:24:46.607Z,26.38
2023-04-28T05:27:13.120Z,15.43
2023-04-28T05:29:39.647Z,13.40
2023-04-28T05:32:06.858Z,19.80
2023-04-28T05:34:33.799Z,13.45
2023-04-28T05:37:00.788Z,12.93
2023-04-28T05:39:28.800Z,9.43
2023-04-28T05:41:58.651Z,9.70
2023-04-28T05:44:25.558Z,9.50
2023-04-28T05:46:53.184Z,8.95
2023-04-28T05:49:24.838Z,10.35
2023-04-28T05:51:51.389Z,8.82
2023-04-28T05:54:18.638Z,8.18
2023-04-28T05:56:49.048Z,8.30
2023-04-28T05:59:16.000Z,8.75
2023-04-28T06:01:43.229Z,8.15
2023-04-28T06:04:09.960Z,8.10
2023-04-28T06:06:36.807Z,8.13
2023-04-28T06:09:04.566Z,7.82
2023-04-28T06:11:32.868Z,8.88
2023-04-28T06:13:59.419Z,10.57
2023-04-28T06:16:26.155Z,9.48
2023-04-28T06:18:53.250Z,8.75
2023-04-28T06:21:21.298Z,8.30
2023-04-28T06:23:47.880Z,9.00
2023-04-28T06:26:16.239Z,8.93
2023-04-28T06:28:44.536Z,9.27
2023-04-28T06:31:11.140Z,9.30
2023-04-28T06:33:39.283Z,10.32
2023-04-28T06:36:06.545Z,9.80
2023-04-28T06:38:33.081Z,9.20
2023-04-28T06:40:59.688Z,9.63
2023-04-28T06:43:26.912Z,10.13
2023-04-28T06:46:04.506Z,10.82
2023-04-28T06:48:31.118Z,10.82
2023-04-28T06:50:57.682Z,9.75
2023-04-28T06:53:24.248Z,8.95
2023-04-28T06:55:50.811Z,9.60
2023-04-28T06:58:17.356Z,11.00
2023-04-28T07:00:44.026Z,10.65
2023-04-28T07:03:10.949Z,9.93
2023-04-28T07:05:37.619Z,9.43
2023-04-28T07:08:04.290Z,9.48
2023-04-28T07:10:30.871Z,10.55
2023-04-28T07:12:59.236Z,14.40
2023-04-28T07:15:26.014Z,11.18
2023-04-28T07:17:52.659Z,13.10
2023-04-28T07:20:19.278Z,15.88
2023-04-28T07:22:45.871Z,23.50
2023-04-28T07:25:12.566Z,17.77
2023-04-28T07:27:39.159Z,18.75
2023-04-28T07:30:15.197Z,19.67
2023-04-28T07:32:52.605Z,14.25
2023-04-28T07:35:19.162Z,23.73
2023-04-28T07:37:45.840Z,18.05
2023-04-28T07:40:12.479Z,13.48
2023-04-28T07:42:39.000Z,11.13
2023-04-28T07:45:06.185Z,9.68
2023-04-28T07:47:32.778Z,9.98
2023-04-28T07:50:00.904Z,9.07
2023-04-28T07:52:27.504Z,9.48
2023-04-28T07:54:54.035Z,9.50
2023-04-28T07:57:20.754Z,8.23
2023-04-28T07:59:47.342Z,9.30
2023-04-28T08:02:15.024Z,9.30
2023-04-28T08:04:41.954Z,8.85
2023-04-28T08:07:09.175Z,9.10
2023-04-28T08:09:36.178Z,10.43
2023-04-28T08:12:02.848Z,10.13
2023-04-28T08:14:29.534Z,11.18
2023-04-28T08:16:56.852Z,10.25
2023-04-28T08:19:23.584Z,10.50
2023-04-28T08:21:50.180Z,8.50
2023-04-28T08:24:17.062Z,9.95
2023-04-28T08:26:44.003Z,10.95
2023-04-28T08:29:10.591Z,9.32
2023-04-28T08:31:37.319Z,8.15
2023-04-28T08:34:04.208Z,8.88
2023-04-28T08:36:32.678Z,8.32
2023-04-28T08:39:01.160Z,8.00
2023-04-28T08:41:29.448Z,7.60
2023-04-28T08:43:56.329Z,10.38
2023-04-28T08:46:23.826Z,11.18
2023-04-28T08:48:51.733Z,9.80
2023-04-28T08:51:26.325Z,10.00
2023-04-28T08:56:25.029Z,6.82
2023-04-28T08:58:52.317Z,6.35
2023-04-28T09:01:18.904Z,6.05
2023-04-28T09:03:47.681Z,5.88
2023-04-28T09:06:14.401Z,6.07
2023-04-28T09:08:40.929Z,5.70
2023-04-28T09:11:13.489Z,6.63
2023-04-28T09:13:41.159Z,5.93
2023-04-28T09:16:07.935Z,6.60
2023-04-28T09:18:34.704Z,6.50
2023-04-28T09:21:08.837Z,6.40
2023-04-28T09:23:48.085Z,6.53
2023-04-28T09:28:41.344Z,6.80
2023-04-28T09:31:22.509Z,8.18
2023-04-28T09:33:58.737Z,8.02
2023-04-28T09:36:30.560Z,8.88
2023-04-28T09:39:01.193Z,8.30
2023-04-28T09:41:39.724Z,8.73
2023-04-28T09:44:13.372Z,8.35
2023-04-28T09:46:40.323Z,8.40
2023-04-28T09:49:07.108Z,7.72
2023-04-28T09:51:34.940Z,7.75
2023-04-28T09:54:02.600Z,7.70
2023-04-28T09:56:30.740Z,7.82
2023-04-28T09:59:01.149Z,7.32
2023-04-28T10:01:31.233Z,8.63
2023-04-28T10:03:58.173Z,8.30
2023-04-28T10:06:28.879Z,9.18
2023-04-28T10:08:57.662Z,8.73
2023-04-28T10:11:25.279Z,9.13
2023-04-28T10:13:53.293Z,8.73
2023-04-28T10:16:20.162Z,9.15
2023-04-28T10:18:46.958Z,8.57
2023-04-28T10:21:18.038Z,7.85
2023-04-28T10:24:10.521Z,8.52
2023-04-28T10:27:03.271Z,8.68
2023-04-28T10:29:32.334Z,9.20
2023-04-28T10:32:21.336Z,8.25
2023-04-28T10:34:48.230Z,9.77
2023-04-28T10:37:15.760Z,9.60
2023-04-28T10:40:20.491Z,10.10
2023-04-28T10:42:54.891Z,9.70
2023-04-28T10:45:50.375Z,8.32
2023-04-28T10:48:18.118Z,9.27
2023-04-28T10:51:03.579Z,9.60
2023-04-28T10:53:49.006Z,9.50
2023-04-28T10:56:19.218Z,9.45
2023-04-28T10:58:50.709Z,9.02
2023-04-28T11:01:26.349Z,7.78
2023-04-28T11:04:08.396Z,7.78
2023-04-28T11:06:49.722Z,7.25
2023-04-28T11:09:17.523Z,7.53
2023-04-28T11:12:06.148Z,7.82
2023-04-28T11:14:37.267Z,7.43
2023-04-28T11:17:08.438Z,7.10
2023-04-28T11:19:43.367Z,6.75
2023-04-28T11:22:20.596Z,7.00
2023-04-28T11:24:57.636Z,6.75
2023-04-28T11:27:28.991Z,6.43
2023-04-28T11:29:55.845Z,7.93
2023-04-28T11:32:30.818Z,6.75
2023-04-28T11:34:57.850Z,6.38
2023-04-28T11:37:24.507Z,7.13
2023-04-28T11:39:51.357Z,7.55
2023-04-28T11:42:17.849Z,6.90
2023-04-28T11:44:54.109Z,6.82
2023-04-28T11:47:34.145Z,6.47
2023-04-28T11:50:01.481Z,6.65
2023-04-28T11:52:28.111Z,6.43
2023-04-28T11:55:00.191Z,5.90
2023-04-28T11:57:27.632Z,5.97
2023-04-28T11:59:54.342Z,5.90
2023-04-28T12:02:30.196Z,5.47
2023-04-28T12:05:17.391Z,5.57
2023-04-28T12:07:44.636Z,5.22
2023-04-28T12:10:16.078Z,4.82
2023-04-28T12:12:50.929Z,5.00
2023-04-28T12:15:20.757Z,5.50
2023-04-28T12:17:54.155Z,5.57
2023-04-28T12:20:39.664Z,5.63
2023-04-28T12:23:07.482Z,6.40
2023-04-28T12:25:35.358Z,6.65
2023-04-28T12:28:03.978Z,6.22
2023-04-28T12:30:32.649Z,5.95
2023-04-28T12:32:59.538Z,5.90
2023-04-28T12:35:27.190Z,6.10
2023-04-28T12:37:58.780Z,6.28
2023-04-28T12:40:26.154Z,8.43
2023-04-28T12:42:53.141Z,5.95
2023-04-28T12:45:19.735Z,5.70
2023-04-28T12:47:47.329Z,4.30
2023-04-28T12:50:13.982Z,4.38
2023-04-28T12:52:40.613Z,4.80
2023-04-28T12:55:08.199Z,5.38
2023-04-28T12:57:39.120Z,5.28
2023-04-28T13:00:07.495Z,4.70
2023-04-28T13:02:35.104Z,4.90
2023-04-28T13:05:03.001Z,5.68
2023-04-28T13:07:30.565Z,5.40
2023-04-28T13:09:58.189Z,5.90
2023-04-28T13:12:25.110Z,6.90
2023-04-28T13:14:51.786Z,6.55
2023-04-28T13:17:18.496Z,5.95
2023-04-28T13:19:45.390Z,5.55
2023-04-28T13:22:12.378Z,4.78
2023-04-28T13:24:38.914Z,5.13
2023-04-28T13:27:09.674Z,5.72
2023-04-28T13:29:36.950Z,4.88
2023-04-28T13:32:05.481Z,4.28
2023-04-28T13:34:32.902Z,4.90
2023-04-28T13:36:59.550Z,4.43
2023-04-28T13:39:26.241Z,4.65
2023-04-28T13:41:52.897Z,4.40
2023-04-28T13:44:19.748Z,4.65
2023-04-28T13:46:46.478Z,5.10
2023-04-28T13:49:13.253Z,5.70
2023-04-28T13:51:39.913Z,4.63
2023-04-28T13:54:11.233Z,5.00
2023-04-28T13:56:39.076Z,3.90
2023-04-28T13:59:05.682Z,4.03
2023-04-28T14:01:32.315Z,4.47
2023-04-28T14:03:59.139Z,4.18
2023-04-28T14:06:27.430Z,3.95
2023-04-28T14:08:54.076Z,3.90
2023-04-28T14:11:20.919Z,3.67
2023-04-28T14:13:47.511Z,3.53
2023-04-28T14:16:14.145Z,3.28
2023-04-28T14:18:41.301Z,3.22
2023-04-28T14:21:08.517Z,3.17
2023-04-28T14:23:35.608Z,3.13
2023-04-28T14:26:02.455Z,3.30
2023-04-28T14:28:29.080Z,3.70
2023-04-28T14:30:55.704Z,3.70
2023-04-28T14:33:22.462Z,3.58
2023-04-28T14:35:49.074Z,4.07
2023-04-28T14:38:15.719Z,3.40
2023-04-28T14:40:43.076Z,3.13
2023-04-28T14:43:09.695Z,3.10
2023-04-28T14:45:37.327Z,3.40
2023-04-28T14:48:04.481Z,3.15
2023-04-28T14:50:31.135Z,3.45
2023-04-28T14:53:05.182Z,2.90
2023-04-28T14:55:32.168Z,3.10
2023-04-28T14:57:58.882Z,2.65
2023-04-28T15:00:25.424Z,2.80
2023-04-28T15:02:52.156Z,2.88
2023-04-28T15:05:19.346Z,2.90
2023-04-28T15:07:46.189Z,2.90
2023-04-28T15:10:12.729Z,2.70
2023-04-28T15:12:39.320Z,3.20
2023-04-28T15:15:06.535Z,2.80
2023-04-28T15:17:34.201Z,2.70
2023-04-28T15:20:00.941Z,2.60
2023-04-28T15:22:27.526Z,2.92
2023-04-28T15:24:55.323Z,2.70
2023-04-28T15:27:23.159Z,2.95
2023-04-28T15:29:50.434Z,2.90
2023-04-28T15:32:16.996Z,3.40
2023-04-28T15:34:44.132Z,3.60
2023-04-28T15:37:47.241Z,4.28
2023-04-28T15:40:15.615Z,3.03
2023-04-28T15:42:43.520Z,4.00
2023-04-28T15:45:10.460Z,11.23
2023-04-28T15:47:38.948Z,4.88
2023-04-28T15:50:06.662Z,10.88
2023-04-28T15:52:33.413Z,11.48
2023-04-28T15:55:00.768Z,4.95
2023-04-28T15:57:27.319Z,3.00
2023-04-28T15:59:54.042Z,5.45
2023-04-28T16:02:22.385Z,2.67
2023-04-28T16:04:49.282Z,2.60
2023-04-28T16:07:16.147Z,2.30
2023-04-28T16:09:42.609Z,2.90
2023-04-28T16:12:09.762Z,2.75
2023-04-28T16:14:37.456Z,2.50
2023-04-28T16:17:04.303Z,2.50
2023-04-28T16:19:31.540Z,2.53
2023-04-28T16:21:58.298Z,4.55
2023-04-28T16:24:25.141Z,2.60
2023-04-28T16:26:54.874Z,2.88
2023-04-28T16:29:22.623Z,2.50
2023-04-28T16:31:49.292Z,3.00
2023-04-28T16:34:15.893Z,3.50
2023-04-28T16:36:42.414Z,2.90
2023-04-28T16:39:09.535Z,2.65
2023-04-28T16:41:37.353Z,2.95
2023-04-28T16:44:03.926Z,3.00
2023-04-28T16:46:33.485Z,3.50
2023-04-28T16:49:00.358Z,3.25
2023-04-28T16:51:28.290Z,3.13
2023-04-28T16:53:54.874Z,3.10
2023-04-28T16:56:21.796Z,3.40
2023-04-28T16:58:48.259Z,3.08
2023-04-28T17:01:14.807Z,3.30
2023-04-28T17:03:44.914Z,3.35
2023-04-28T17:06:11.622Z,3.20
2023-04-28T17:08:40.139Z,3.28
2023-04-28T17:11:06.748Z,3.03
2023-04-28T17:13:33.431Z,3.63
2023-04-28T17:16:00.438Z,3.20
2023-04-28T17:18:27.696Z,3.15
2023-04-28T17:20:54.738Z,3.22
2023-04-28T17:23:21.801Z,3.30
2023-04-28T17:25:48.377Z,3.47
2023-04-28T17:28:14.952Z,3.15
2023-04-28T17:30:43.894Z,3.42
2023-04-28T17:33:13.539Z,3.50
2023-04-28T17:35:40.321Z,3.30
2023-04-28T17:38:06.941Z,3.05
2023-04-28T17:40:33.436Z,3.90
2023-04-28T17:42:59.989Z,3.75
2023-04-28T17:45:26.496Z,3.70
2023-04-28T17:47:53.199Z,3.72
2023-04-28T17:50:19.786Z,4.00
2023-04-28T17:52:46.591Z,3.50
2023-04-28T17:55:14.203Z,3.70
2023-04-28T17:57:40.773Z,3.50
2023-04-28T18:00:08.011Z,3.65
2023-04-28T18:02:38.503Z,3.70
2023-04-28T18:05:06.180Z,3.80
2023-04-28T18:07:32.753Z,4.05
2023-04-28T18:09:59.281Z,3.97
2023-04-28T18:12:26.143Z,3.92
2023-04-28T18:14:53.899Z,3.50
2023-04-28T18:17:20.780Z,3.90
2023-04-28T18:19:52.148Z,3.85
2023-04-28T18:22:18.781Z,3.42
2023-04-28T18:24:45.448Z,3.55
2023-04-28T18:27:11.990Z,3.90
2023-04-28T18:29:41.480Z,3.22
2023-04-28T18:32:08.088Z,3.88
2023-04-28T18:34:34.667Z,3.75
2023-04-28T18:37:04.274Z,3.40
2023-04-28T18:39:30.901Z,3.28
2023-04-28T18:42:01.529Z,3.17
2023-04-28T18:44:28.439Z,3.10
2023-04-28T18:46:56.565Z,3.10
2023-04-28T18:49:24.674Z,2.90
2023-04-28T18:51:51.670Z,2.95
2023-04-28T18:54:18.572Z,2.90
2023-04-28T18:56:45.380Z,3.22
2023-04-28T18:59:12.206Z,3.10
2023-04-28T19:01:39.150Z,3.03
2023-04-28T19:04:06.747Z,3.50
2023-04-28T19:06:33.801Z,3.50
2023-04-28T19:09:00.438Z,3.60
2023-04-28T19:11:26.986Z,3.72
2023-04-28T19:13:54.229Z,3.40
2023-04-28T19:16:20.808Z,4.13
2023-04-28T19:18:47.537Z,4.35
2023-04-28T19:21:14.159Z,4.18
2023-04-28T19:23:43.806Z,4.07
2023-04-28T19:26:13.448Z,3.75
2023-04-28T19:28:40.111Z,3.40
2023-04-28T19:31:08.500Z,3.42
2023-04-28T19:33:35.156Z,3.13
2023-04-28T19:36:01.981Z,3.00
2023-04-28T19:38:31.578Z,3.38
2023-04-28T19:41:01.329Z,3.30
2023-04-28T19:43:28.004Z,3.00
2023-04-28T19:45:54.808Z,3.10
2023-04-28T19:48:21.386Z,3.13
2023-04-28T19:50:48.045Z,3.15
2023-04-28T19:53:14.978Z,3.33
2023-04-28T19:55:41.642Z,3.70
2023-04-28T19:58:10.097Z,5.28
2023-04-28T20:00:36.842Z,6.25
2023-04-28T20:03:03.980Z,6.53
2023-04-28T20:05:31.253Z,6.50
2023-04-28T20:07:58.026Z,5.03
2023-04-28T20:10:24.720Z,5.30
2023-04-28T20:12:54.347Z,5.10
2023-04-28T20:15:21.010Z,4.50
2023-04-28T20:17:47.652Z,4.85
2023-04-28T20:20:14.281Z,4.28
2023-04-28T20:22:41.116Z,4.10
2023-04-28T20:25:10.331Z,3.58
2023-04-28T20:30:04.348Z,3.25
2023-04-28T20:32:31.110Z,2.88
2023-04-28T20:34:57.763Z,3.13
2023-04-28T20:37:26.215Z,2.88
2023-04-28T20:39:53.028Z,3.05
2023-04-28T20:42:19.797Z,3.33
2023-04-28T20:44:46.573Z,3.60
2023-04-28T20:47:13.555Z,3.65
2023-04-28T20:49:40.362Z,4.00
2023-04-28T20:52:09.702Z,4.10
2023-04-28T20:57:04.392Z,3.50
2023-04-28T20:59:32.582Z,3.50
2023-04-28T21:01:59.837Z,3.03
2023-04-28T21:04:26.630Z,3.25
2023-04-28T21:06:53.455Z,3.30
2023-04-28T21:09:20.858Z,3.05
2023-04-28T21:11:48.035Z,3.30
2023-04-28T21:14:15.223Z,2.75
2023-04-28T21:16:43.557Z,2.70
2023-04-28T21:19:10.881Z,2.70
2023-04-28T21:21:38.109Z,2.67
2023-04-28T21:24:09.155Z,2.50
2023-04-28T21:26:36.497Z,2.50
2023-04-28T21:29:03.157Z,2.95
2023-04-28T21:31:31.195Z,2.90
2023-04-28T21:33:58.214Z,2.72
2023-04-28T21:36:24.737Z,2.60
2023-04-28T21:38:51.584Z,2.90
2023-04-28T21:41:18.070Z,2.47
2023-04-28T21:43:44.714Z,2.72
2023-04-28T21:46:11.419Z,3.05
2023-04-28T21:48:38.582Z,3.40
2023-04-28T21:51:05.122Z,2.78
2023-04-28T21:53:31.824Z,2.75
2023-04-28T21:55:58.379Z,2.30
2023-04-28T21:58:24.896Z,2.70
2023-04-28T22:00:51.588Z,2.70
2023-04-28T22:03:18.701Z,2.40
2023-04-28T22:05:45.548Z,2.03
2023-04-28T22:08:12.924Z,2.38
2023-04-28T22:10:44.035Z,2.95
2023-04-28T22:13:10.897Z,2.40
2023-04-28T22:15:38.050Z,2.30
2023-04-28T22:18:05.318Z,2.40
2023-04-28T22:20:32.494Z,2.88
2023-04-28T22:23:01.999Z,2.40
2023-04-28T22:25:28.595Z,2.60
2023-04-28T22:27:55.196Z,2.55
2023-04-28T22:30:23.670Z,2.50
2023-04-28T22:32:51.640Z,2.67
2023-04-28T22:35:18.674Z,2.58
2023-04-28T22:37:45.185Z,2.50
2023-04-28T22:40:11.987Z,3.03
2023-04-28T22:42:39.845Z,2.40
2023-04-28T22:45:06.793Z,2.90
2023-04-28T22:47:34.230Z,3.30
2023-04-28T22:50:00.972Z,3.03
2023-04-28T22:52:27.664Z,3.13
2023-04-28T22:54:54.279Z,3.00
2023-04-28T22:57:20.943Z,3.15
2023-04-28T22:59:47.412Z,3.05
2023-04-28T23:02:13.892Z,3.10
2023-04-28T23:04:41.137Z,3.10
2023-04-28T23:07:07.852Z,3.13
2023-04-28T23:09:36.104Z,4.07
2023-04-28T23:12:05.510Z,3.70
2023-04-28T23:16:58.711Z,3.50
2023-04-28T23:19:25.353Z,3.67
2023-04-28T23:21:51.915Z,3.53
2023-04-28T23:24:18.381Z,3.45
2023-04-28T23:26:44.948Z,3.70
2023-04-28T23:29:11.499Z,5.07
2023-04-28T23:31:39.853Z,5.90
2023-04-28T23:34:06.832Z,5.30
2023-04-28T23:36:33.337Z,5.00
2023-04-28T23:38:59.820Z,4.93
2023-04-28T23:41:27.923Z,4.72
2023-04-28T23:43:54.383Z,4.72
2023-04-28T23:46:21.415Z,4.47
2023-04-28T23:48:47.987Z,4.10
2023-04-28T23:51:14.909Z,4.15
2023-04-28T23:53:41.932Z,4.10
2023-04-28T23:56:08.544Z,3.65
2023-04-28T23:58:35.078Z,4.28
